AFL1315 UMKK-ULLI
Flight info
| Callsign | AFL1315 |
|---|---|
| Flight time | N/A |
| Altitude | 37000 |
| Route | PELUG3N PELUG DCT KEDUX DCT PIVAX DCT PINIX DCT PIRUX DCT PISIM DCT PIDIN DCT ARANS/K0839F370 DCT PISIS DCT AKARU AKARU1V |
| Aircraft | A20N/M-SDE2E3FGHIRWXY/LB1 |
Departure
| Time | N/A |
|---|---|
| Airport | Khrabrovo Airport (UMKK) |
Arrival
| Time | 2026-05-04 16:53 |
|---|---|
| Airport | Pulkovo Airport (ULLI) |
| Time | Latitude | Longitude | Altitude | Speed | Heading |
|---|---|---|---|---|---|
| 2026-05-04 15:37 | 55.27835 | 20.23356 | 18428 ft | 381 kts | 332° |
| 2026-05-04 15:37 | 55.30318 | 20.21644 | 19066 ft | 386 kts | 331° |
| 2026-05-04 15:38 | 55.32830 | 20.19909 | 19699 ft | 390 kts | 331° |
| 2026-05-04 15:38 | 55.35334 | 20.18178 | 20315 ft | 394 kts | 331° |
| 2026-05-04 15:38 | 55.37897 | 20.16404 | 20947 ft | 398 kts | 331° |
| 2026-05-04 15:38 | 55.40478 | 20.14616 | 21572 ft | 401 kts | 330° |
| 2026-05-04 15:39 | 55.43132 | 20.12775 | 22214 ft | 405 kts | 330° |
| 2026-05-04 15:39 | 55.45763 | 20.10946 | 22826 ft | 409 kts | 330° |
| 2026-05-04 15:39 | 55.51075 | 20.07247 | 23909 ft | 416 kts | 330° |
| 2026-05-04 15:40 | 55.53778 | 20.05361 | 24398 ft | 420 kts | 330° |
| 2026-05-04 15:40 | 55.56506 | 20.03455 | 24882 ft | 423 kts | 330° |
| 2026-05-04 15:40 | 55.59255 | 20.01533 | 25366 ft | 425 kts | 330° |
| 2026-05-04 15:40 | 55.62011 | 19.99602 | 25832 ft | 428 kts | 330° |
| 2026-05-04 15:41 | 55.64789 | 19.97652 | 26295 ft | 431 kts | 330° |
| 2026-05-04 15:41 | 55.67581 | 19.95690 | 26752 ft | 433 kts | 330° |
| 2026-05-04 15:41 | 55.70391 | 19.93711 | 27192 ft | 436 kts | 329° |
| 2026-05-04 15:41 | 55.73221 | 19.91715 | 27586 ft | 439 kts | 329° |
| 2026-05-04 15:42 | 55.76082 | 19.89689 | 27871 ft | 445 kts | 329° |
| 2026-05-04 15:42 | 55.78959 | 19.87654 | 28398 ft | 445 kts | 329° |
| 2026-05-04 15:42 | 55.81839 | 19.85618 | 28862 ft | 446 kts | 329° |
| 2026-05-04 15:42 | 55.84725 | 19.83572 | 29277 ft | 448 kts | 329° |
| 2026-05-04 15:43 | 55.87622 | 19.81515 | 29743 ft | 448 kts | 329° |
| 2026-05-04 15:43 | 55.90479 | 19.79485 | 30261 ft | 446 kts | 329° |
| 2026-05-04 15:43 | 55.93346 | 19.77447 | 30756 ft | 443 kts | 329° |
| 2026-05-04 15:43 | 55.96204 | 19.75411 | 31233 ft | 441 kts | 329° |
| 2026-05-04 15:44 | 55.99050 | 19.73377 | 31686 ft | 439 kts | 329° |
| 2026-05-04 15:44 | 56.01885 | 19.71346 | 32126 ft | 438 kts | 329° |
| 2026-05-04 15:44 | 56.04705 | 19.69321 | 32563 ft | 436 kts | 329° |
| 2026-05-04 15:44 | 56.07520 | 19.67295 | 32984 ft | 435 kts | 329° |
| 2026-05-04 15:45 | 56.10330 | 19.65271 | 33407 ft | 433 kts | 329° |
| 2026-05-04 15:45 | 56.13089 | 19.63280 | 33825 ft | 432 kts | 329° |
| 2026-05-04 15:45 | 56.15918 | 19.61276 | 34145 ft | 434 kts | 332° |
| 2026-05-04 15:45 | 56.18848 | 19.59772 | 34393 ft | 444 kts | 340° |
| 2026-05-04 15:46 | 56.21899 | 19.59042 | 34622 ft | 455 kts | 349° |
| 2026-05-04 15:46 | 56.25100 | 19.59245 | 34876 ft | 466 kts | 360° |
| 2026-05-04 15:46 | 56.28317 | 19.60235 | 35137 ft | 471 kts | 4° |
| 2026-05-04 15:46 | 56.31528 | 19.61484 | 35404 ft | 473 kts | 6° |
| 2026-05-04 15:47 | 56.34730 | 19.62866 | 35662 ft | 474 kts | 7° |
| 2026-05-04 15:47 | 56.37931 | 19.64303 | 35915 ft | 474 kts | 7° |
| 2026-05-04 15:47 | 56.41136 | 19.65750 | 36155 ft | 475 kts | 7° |
| 2026-05-04 15:47 | 56.44347 | 19.67189 | 36406 ft | 475 kts | 7° |
| 2026-05-04 15:48 | 56.47553 | 19.68608 | 36653 ft | 474 kts | 7° |
| 2026-05-04 15:48 | 56.50767 | 19.70017 | 36808 ft | 477 kts | 7° |
| 2026-05-04 15:48 | 56.57232 | 19.72829 | 36824 ft | 480 kts | 7° |
| 2026-05-04 15:49 | 56.63786 | 19.75675 | 36817 ft | 486 kts | 7° |
| 2026-05-04 15:49 | 56.70371 | 19.78557 | 36819 ft | 486 kts | 7° |
| 2026-05-04 15:50 | 56.76908 | 19.81432 | 36815 ft | 486 kts | 7° |
| 2026-05-04 15:50 | 56.83495 | 19.84337 | 36809 ft | 486 kts | 7° |
| 2026-05-04 15:51 | 56.90076 | 19.87249 | 36807 ft | 486 kts | 7° |
| 2026-05-04 15:51 | 56.96653 | 19.90168 | 36811 ft | 486 kts | 8° |
| 2026-05-04 15:52 | 57.03157 | 19.93249 | 36806 ft | 480 kts | 10° |
| 2026-05-04 15:52 | 57.09551 | 19.96726 | 36798 ft | 478 kts | 11° |
| 2026-05-04 15:53 | 57.15884 | 20.00254 | 36796 ft | 479 kts | 11° |
| 2026-05-04 15:53 | 57.22265 | 20.03783 | 36796 ft | 479 kts | 11° |
| 2026-05-04 15:54 | 57.28649 | 20.07296 | 36793 ft | 479 kts | 11° |
| 2026-05-04 15:54 | 57.35037 | 20.10814 | 36791 ft | 479 kts | 11° |
| 2026-05-04 15:55 | 57.41429 | 20.14347 | 36784 ft | 479 kts | 11° |
| 2026-05-04 15:55 | 57.47825 | 20.17897 | 36780 ft | 480 kts | 11° |
| 2026-05-04 15:56 | 57.54226 | 20.21464 | 36776 ft | 480 kts | 11° |
| 2026-05-04 15:56 | 57.60626 | 20.25043 | 36777 ft | 480 kts | 11° |
| 2026-05-04 15:57 | 57.67024 | 20.28635 | 36776 ft | 481 kts | 11° |
| 2026-05-04 15:57 | 57.73431 | 20.32244 | 36772 ft | 481 kts | 11° |
| 2026-05-04 15:58 | 57.78767 | 20.35261 | 36770 ft | 481 kts | 11° |
| 2026-05-04 15:58 | 57.85180 | 20.38899 | 36765 ft | 482 kts | 11° |
| 2026-05-04 15:59 | 57.91598 | 20.42553 | 36767 ft | 482 kts | 11° |
| 2026-05-04 15:59 | 57.99055 | 20.46816 | 36764 ft | 482 kts | 11° |
| 2026-05-04 16:00 | 58.04438 | 20.49905 | 36756 ft | 482 kts | 11° |
| 2026-05-04 16:00 | 58.10871 | 20.53609 | 36759 ft | 483 kts | 11° |
| 2026-05-04 16:01 | 58.17263 | 20.57304 | 36760 ft | 483 kts | 11° |
| 2026-05-04 16:01 | 58.23700 | 20.61038 | 36759 ft | 483 kts | 12° |
| 2026-05-04 16:02 | 58.30129 | 20.64782 | 36748 ft | 483 kts | 12° |
| 2026-05-04 16:03 | 58.39731 | 20.70872 | 36749 ft | 486 kts | 14° |
| 2026-05-04 16:03 | 58.46082 | 20.75305 | 36749 ft | 486 kts | 15° |
| 2026-05-04 16:04 | 58.52434 | 20.79748 | 36744 ft | 486 kts | 15° |
| 2026-05-04 16:04 | 58.61927 | 20.86345 | 36741 ft | 486 kts | 14° |
| 2026-05-04 16:05 | 58.68284 | 20.90766 | 36733 ft | 486 kts | 14° |
| 2026-05-04 16:06 | 58.77828 | 20.97436 | 36730 ft | 486 kts | 14° |
| 2026-05-04 16:07 | 58.90535 | 21.06382 | 36732 ft | 486 kts | 15° |
| 2026-05-04 16:08 | 59.02935 | 21.16921 | 36724 ft | 497 kts | 33° |
| 2026-05-04 16:08 | 59.09345 | 21.32858 | 36722 ft | 507 kts | 60° |
| 2026-05-04 16:09 | 59.12554 | 21.45106 | 36724 ft | 509 kts | 63° |
| 2026-05-04 16:10 | 59.18753 | 21.69815 | 36710 ft | 509 kts | 63° |
| 2026-05-04 16:11 | 59.25037 | 21.94601 | 36712 ft | 509 kts | 63° |
| 2026-05-04 16:12 | 59.34392 | 22.31954 | 36712 ft | 509 kts | 63° |
| 2026-05-04 16:13 | 59.36927 | 22.42195 | 36722 ft | 509 kts | 63° |
| 2026-05-04 16:14 | 59.43082 | 22.67249 | 36719 ft | 509 kts | 63° |
| 2026-05-04 16:16 | 59.50702 | 22.98670 | 36713 ft | 509 kts | 63° |
| 2026-05-04 16:17 | 59.57344 | 23.30968 | 36706 ft | 510 kts | 72° |
| 2026-05-04 16:18 | 59.61568 | 23.57599 | 36700 ft | 510 kts | 72° |
| 2026-05-04 16:19 | 59.66781 | 23.91007 | 36693 ft | 510 kts | 72° |
| 2026-05-04 16:20 | 59.71929 | 24.24561 | 36689 ft | 509 kts | 73° |
| 2026-05-04 16:22 | 59.76794 | 24.58287 | 36684 ft | 509 kts | 76° |
| 2026-05-04 16:23 | 59.81884 | 24.99179 | 36673 ft | 508 kts | 76° |
| 2026-05-04 16:25 | 59.86901 | 25.40012 | 36666 ft | 507 kts | 76° |
| 2026-05-04 16:26 | 59.92596 | 25.87848 | 36660 ft | 507 kts | 77° |
| 2026-05-04 16:28 | 59.96557 | 26.22116 | 36656 ft | 507 kts | 77° |
| 2026-05-04 16:29 | 60.01950 | 26.70213 | 36647 ft | 507 kts | 77° |
| 2026-05-04 16:31 | 60.05600 | 27.04705 | 36642 ft | 507 kts | 80° |
| 2026-05-04 16:32 | 60.09213 | 27.46336 | 36632 ft | 506 kts | 80° |
| 2026-05-04 16:33 | 60.10395 | 27.60235 | 36451 ft | 506 kts | 81° |
| 2026-05-04 16:33 | 60.11563 | 27.74146 | 35949 ft | 507 kts | 81° |
| 2026-05-04 16:34 | 60.12722 | 27.88135 | 35328 ft | 506 kts | 81° |
| 2026-05-04 16:34 | 60.13296 | 27.95125 | 34466 ft | 511 kts | 81° |
| 2026-05-04 16:35 | 60.15022 | 28.16451 | 31329 ft | 514 kts | 82° |
| 2026-05-04 16:35 | 60.16737 | 28.38122 | 27787 ft | 534 kts | 82° |
| 2026-05-04 16:36 | 60.17314 | 28.45513 | 26538 ft | 537 kts | 82° |
| 2026-05-04 16:36 | 60.18357 | 28.60068 | 24315 ft | 517 kts | 87° |
| 2026-05-04 16:37 | 60.17757 | 28.74275 | 22825 ft | 505 kts | 102° |
| 2026-05-04 16:37 | 60.17154 | 28.81115 | 22090 ft | 493 kts | 103° |
| 2026-05-04 16:37 | 60.15932 | 28.94591 | 21063 ft | 486 kts | 103° |
| 2026-05-04 16:38 | 60.14733 | 29.07845 | 20032 ft | 478 kts | 102° |
| 2026-05-04 16:39 | 60.12960 | 29.27307 | 18516 ft | 467 kts | 102° |
| 2026-05-04 16:39 | 60.11791 | 29.40001 | 17479 ft | 459 kts | 102° |
| 2026-05-04 16:40 | 60.10628 | 29.52501 | 16500 ft | 452 kts | 102° |
| 2026-05-04 16:40 | 60.09480 | 29.64715 | 15545 ft | 445 kts | 102° |
| 2026-05-04 16:41 | 60.08376 | 29.76331 | 14639 ft | 439 kts | 103° |
| 2026-05-04 16:41 | 60.06769 | 29.93106 | 13624 ft | 377 kts | 103° |
| 2026-05-04 16:42 | 60.04702 | 30.07426 | 12324 ft | 354 kts | 125° |
| 2026-05-04 16:43 | 60.01911 | 30.15555 | 11042 ft | 354 kts | 130° |
| 2026-05-04 16:43 | 59.99073 | 30.23528 | 9936 ft | 350 kts | 129° |
| 2026-05-04 16:43 | 59.97670 | 30.27489 | 9424 ft | 347 kts | 129° |
| 2026-05-04 16:44 | 59.92896 | 30.40995 | 7998 ft | 313 kts | 130° |
| 2026-05-04 16:45 | 59.90358 | 30.48125 | 6261 ft | 318 kts | 130° |
| 2026-05-04 16:46 | 59.86546 | 30.58835 | 4235 ft | 295 kts | 130° |
| 2026-05-04 16:46 | 59.84244 | 30.65284 | 3285 ft | 282 kts | 129° |
| 2026-05-04 16:47 | 59.81336 | 30.69818 | 2787 ft | 264 kts | 173° |
| 2026-05-04 16:47 | 59.78106 | 30.67955 | 2488 ft | 242 kts | 227° |
| 2026-05-04 16:48 | 59.75588 | 30.59683 | 2491 ft | 214 kts | 245° |
| 2026-05-04 16:48 | 59.75107 | 30.57065 | 2519 ft | 192 kts | 260° |
| 2026-05-04 16:49 | 59.75407 | 30.52310 | 2503 ft | 169 kts | 284° |
| 2026-05-04 16:49 | 59.76098 | 30.47876 | 2376 ft | 166 kts | 286° |
| 2026-05-04 16:50 | 59.76797 | 30.43570 | 1739 ft | 156 kts | 284° |
| 2026-05-04 16:50 | 59.77341 | 30.39758 | 1152 ft | 132 kts | 285° |
| 2026-05-04 16:51 | 59.77838 | 30.36431 | 745 ft | 123 kts | 285° |
| 2026-05-04 16:51 | 59.78079 | 30.34782 | 677 ft | 125 kts | 285° |
| 2026-05-04 16:51 | 59.78553 | 30.31507 | 426 ft | 122 kts | 287° |
| 2026-05-04 16:52 | 59.79027 | 30.28312 | 136 ft | 120 kts | 289° |
| 2026-05-04 16:52 | 59.79257 | 30.26805 | 91 ft | 98 kts | 287° |
| 2026-05-04 16:53 | 59.79455 | 30.25460 | 92 ft | 23 kts | 287° |
| 2026-05-04 16:53 | 59.79622 | 30.24344 | 90 ft | 31 kts | 286° |
| 2026-05-04 16:54 | 59.79684 | 30.23926 | 90 ft | 32 kts | 287° |
| 2026-05-04 16:55 | 59.79956 | 30.23028 | 88 ft | 0 kts | 17° |
| 2026-05-04 16:55 | 59.79966 | 30.23041 | 87 ft | 0 kts | 36° |
| 2026-05-04 16:56 | 59.79964 | 30.23223 | 89 ft | 12 kts | 106° |
| 2026-05-04 16:56 | 59.79889 | 30.23731 | 86 ft | 14 kts | 107° |
| 2026-05-04 16:57 | 59.79860 | 30.23928 | 86 ft | 13 kts | 105° |
| 2026-05-04 16:57 | 59.79804 | 30.24301 | 88 ft | 15 kts | 105° |
| 2026-05-04 16:58 | 59.79714 | 30.24916 | 89 ft | 16 kts | 106° |
| 2026-05-04 16:58 | 59.79680 | 30.25138 | 90 ft | 17 kts | 106° |
| 2026-05-04 16:59 | 59.79611 | 30.25606 | 90 ft | 18 kts | 106° |
| 2026-05-04 17:00 | 59.79582 | 30.25798 | 90 ft | 0 kts | 106° |
| 2026-05-04 17:01 | 59.79550 | 30.26015 | 89 ft | 14 kts | 106° |
| 2026-05-04 17:01 | 59.79528 | 30.26355 | 89 ft | 9 kts | 35° |
| 2026-05-04 17:02 | 59.79683 | 30.26452 | 88 ft | 10 kts | 16° |
| 2026-05-04 17:02 | 59.79711 | 30.26623 | 87 ft | 7 kts | 94° |
| 2026-05-04 17:03 | 59.79711 | 30.26629 | 86 ft | 0 kts | 94° |